Overview Statistics Trail Chart Weather Telemetry Raw packets
 

This is the latest recevied weather packets stored in our database for station/object W5MAI. If no packets are shown the sender has not sent any weather packets the latest 10 day(s).

<< 33 34 35 36 37 38 39 >>
Time Temp. Humidity Pressure Rain* Wind** Luminosity Snow
1788057826 30° C 63% 1017.3 hPa 0 mm - 0 W/m² -
1788057249 30.56° C 63% 1017.1 hPa 0 mm - 0 W/m² -
1788056616 30.56° C 61% 1016.9 hPa 0 mm - 0 W/m² -
1788056046 31.11° C 61% 1016.8 hPa 0 mm - 0 W/m² -
1788055451 30.56° C 60% 1016.6 hPa 0 mm - 0 W/m² -
1788054812 30° C 62% 1016.5 hPa 0 mm - 0 W/m² -
1788054237 29.44° C 67% 1016.3 hPa 0 mm - 0 W/m² -
1788053656 30° C 67% 1016.1 hPa 0 mm - 0 W/m² -
1788053005 30.56° C 63% 1016.1 hPa 0 mm - 0 W/m² -
1788052425 31.11° C 62% 1016 hPa 0 mm - 0 W/m² -
1788051855 32.22° C 61% 1016.1 hPa 0 mm - 0 W/m² -
1788051209 32.78° C 57% 1016.1 hPa 0 mm - 7 W/m² -
1788049442 33.89° C 48% 1016.1 hPa 0 mm - 53 W/m² -
1788048862 33.89° C 48% 1016.2 hPa 0 mm - 79 W/m² -
1788048226 34.44° C 47% 1016.2 hPa 0 mm - 114 W/m² -
1788047649 34.44° C 47% 1016.1 hPa 0 mm - 163 W/m² -
1788047010 35° C 47% 1016.1 hPa 0 mm - 190 W/m² -
1788046435 35° C 47% 1016.2 hPa 0 mm - 232 W/m² -
1788045805 35° C 47% 1016.3 hPa 0 mm - 301 W/m² -
1788045224 35° C 46% 1016.3 hPa 0 mm - 345 W/m² -
1788044660 35° C 46% 1016.2 hPa 0 mm - 390 W/m² -
1788044024 35.56° C 46% 1016.3 hPa 0 mm - 403 W/m² -
1788043448 35.56° C 45% 1016.3 hPa 0 mm - 469 W/m² -
1788042812 35.56° C 45% 1016.3 hPa 0 mm - 519 W/m² -
1788042238 35° C 46% 1016.4 hPa 0 mm - 534 W/m² -

* Rain latest hour (hover to see other rain measurements)
** Current wind speed in m/s (hover to see current wind gust speed)